Eurodam — PHOS — position and weather

sailwx.info

Track history (hours):
 
Tides and Currents Weather Stations Pressure Air Temp Water Temp Dewpoint Dewpoint Depression Visibility Wind Speed Wind Dir Waves Ship Positions

Eurodam (Netherlands)

Last reported at 2015-Aug-03 03:33 UTC. Time now 2015-Aug-03 04:30 UTC.
Position N 59°22' E 004°56'.

Length 287 m; draft 8.1 m.

Type: Ship. MMSI: 245206000.

Date/timePositionNaut miles runAvg speedWind from/ knotsBaromVisibWave heightAir tempDewpointWater temp
2015-Aug-03 03:33N 59°22' E 004°56'2416.4
2015-Aug-03 02:06N 59°44' E 004°38'916.2
2015-Aug-03 01:33N 59°53' E 004°35'50 1.7
2015-Aug-01 20:00N 60°42' E 004°12'11715.1 160 / 221010.810.8 0.513.0 6.812.6
2015-Aug-01 12:17N 58°46' E 004°38'1216.0
2015-Aug-01 11:31N 58°38' E 004°55'1916.6
2015-Aug-01 10:23N 58°23' E 005°19'1316.1
2015-Aug-01 09:33N 58°14' E 005°37'1515.3
2015-Aug-01 08:33N 58°04' E 005°59'10316.1
2015-Aug-01 02:12N 57°49' E 009°10'1316.8
2015-Aug-01 01:25N 57°50' E 009°35'1517.0
2015-Aug-01 00:33N 57°50' E 010°02'1716.7
2015-Jul-31 23:33N 57°49' E 010°33'1716.6
2015-Jul-31 22:34N 57°41' E 011°01'1716.8
2015-Jul-31 21:33N 57°30' E 011°25'1817.5
2015-Jul-31 20:33N 57°14' E 011°36'1717.3
2015-Jul-31 19:33N 56°57' E 011°47'1716.9
2015-Jul-31 18:33N 56°41' E 011°56'1 2.4
2015-Jul-31 18:00N 56°42' E 011°54'1840.2 280 / 301013.210.8 0.524.0 8.815.7
2015-Jul-31 17:32N 56°25' E 012°05'1616.0
2015-Jul-31 16:33N 56°13' E 012°23'1515.0
2015-Jul-31 15:33N 56°02' E 012°41'1514.7
2015-Jul-31 14:33N 55°47' E 012°43'5 5.0
2015-Jul-31 13:32N 55°43' E 012°37'0 0.0
2015-Jul-31 12:32N 55°43' E 012°37'0 0.0
2015-Jul-31 11:33N 55°43' E 012°37'0 0.0
2015-Jul-31 10:33N 55°43' E 012°37'0 0.0
2015-Jul-31 09:33N 55°43' E 012°37'0 0.0
2015-Jul-31 08:33N 55°43' E 012°37'0 0.0
2015-Jul-31 07:33N 55°43' E 012°37'0 0.0
2015-Jul-31 06:33N 55°43' E 012°37'0 0.0
2015-Jul-31 05:31N 55°43' E 012°37'0 0.0
2015-Jul-31 04:33N 55°43' E 012°37'0 0.0
2015-Jul-31 03:33N 55°43' E 012°37'0 0.0
2015-Jul-31 02:33N 55°43' E 012°37'0 0.0
2015-Jul-31 01:33N 55°43' E 012°37'0 0.0
2015-Jul-31 00:33N 55°43' E 012°37'0 0.0
2015-Jul-30 23:33N 55°43' E 012°37'0 0.0
2015-Jul-30 22:33N 55°43' E 012°37'0 0.0
2015-Jul-30 21:33N 55°43' E 012°37'0 0.0
2015-Jul-30 20:32N 55°43' E 012°37'0 0.0
2015-Jul-30 19:32N 55°43' E 012°37'0 0.0
2015-Jul-30 18:32N 55°43' E 012°37'0 0.0
2015-Jul-30 17:31N 55°43' E 012°37'0 0.0
2015-Jul-30 16:33N 55°43' E 012°37'0 0.0
2015-Jul-30 15:31N 55°43' E 012°37'0 0.0
2015-Jul-30 14:33N 55°43' E 012°37'0 0.0
2015-Jul-30 13:33N 55°43' E 012°37'0 0.0
2015-Jul-30 12:32N 55°43' E 012°37'0 0.0
2015-Jul-30 11:32N 55°43' E 012°37'0 0.0
2015-Jul-30 10:32N 55°43' E 012°37'0 0.0
2015-Jul-30 09:32N 55°43' E 012°37'0 0.0
2015-Jul-30 08:33N 55°43' E 012°37'5 4.7
2015-Jul-30 07:34N 55°47' E 012°42'1313.4
2015-Jul-30 06:33N 55°60' E 012°40'1414.3
2015-Jul-30 05:34N 56°10' E 012°22'1514.5
2015-Jul-30 04:34N 56°09' E 011°56'1514.7
2015-Jul-30 03:34N 56°07' E 011°30'8313.8
2015-Jul-29 21:32N 54°47' E 010°49'1414.3
2015-Jul-29 20:33N 54°36' E 011°04'1817.4
2015-Jul-29 19:32N 54°30' E 011°33'1916.2
2015-Jul-29 18:20N 54°17' E 011°59'810.2
2015-Jul-29 17:33N 54°11' E 012°06'0 0.0
2015-Jul-29 16:30N 54°11' E 012°06'0 0.0
2015-Jul-29 15:09N 54°11' E 012°06'0 0.0
2015-Jul-29 13:18N 54°11' E 012°06'0 0.0
2015-Jul-29 12:32N 54°11' E 012°06'0 0.0
2015-Jul-29 11:20N 54°11' E 012°06'0 0.0
2015-Jul-29 10:26N 54°11' E 012°06'0 0.0
2015-Jul-29 09:32N 54°11' E 012°06'0 0.0
2015-Jul-29 08:26N 54°11' E 012°06'0 0.0
2015-Jul-29 07:29N 54°11' E 012°06'0 0.0
2015-Jul-29 06:23N 54°11' E 012°06'0 0.0
2015-Jul-29 05:32N 54°11' E 012°06'0 0.0
2015-Jul-29 04:20N 54°11' E 012°06'0 0.2
2015-Jul-29 03:27N 54°10' E 012°06'4 4.6
2015-Jul-29 02:33N 54°14' E 012°03'1211.9
2015-Jul-29 01:33N 54°26' E 011°60'1212.3
2015-Jul-29 00:33N 54°34' E 012°15'6114.4
2015-Jul-28 20:20N 55°02' E 013°49'1113.7
2015-Jul-28 19:33N 55°06' E 014°06'1414.1
2015-Jul-28 18:34N 55°17' E 014°22'5 9.2
2015-Jul-28 18:00N 55°12' E 014°18'1944.0 250 / 23999.010.8 1.525.0 1.5
2015-Jul-28 17:33N 55°28' E 014°37'1413.8
2015-Jul-28 16:33N 55°35' E 014°58'1413.7
2015-Jul-28 15:33N 55°42' E 015°19'9713.9
2015-Jul-28 08:32N 56°54' E 017°16'1717.4
2015-Jul-28 07:33N 57°10' E 017°27'1515.4
2015-Jul-28 06:33N 57°25' E 017°38'1615.7
2015-Jul-28 05:33N 57°39' E 017°49'6014.9
2015-Jul-28 01:33N 58°31' E 018°43'52 4.8
2015-Jul-27 14:33N 59°21' E 018°08'1 0.6
2015-Jul-27 13:26N 59°21' E 018°07'0 0.0
2015-Jul-27 12:32N 59°21' E 018°07'0 0.0
2015-Jul-27 11:25N 59°21' E 018°07'0 0.0
2015-Jul-27 10:31N 59°21' E 018°07'0 0.0
2015-Jul-27 09:31N 59°21' E 018°07'0 0.0
2015-Jul-27 08:31N 59°21' E 018°07'0 0.0
2015-Jul-27 07:31N 59°21' E 018°07'0 0.0
2015-Jul-27 06:32N 59°21' E 018°07'0 0.0
2015-Jul-27 05:33N 59°21' E 018°07'0 0.0
2015-Jul-27 04:32N 59°21' E 018°07'0 0.0
2015-Jul-27 03:32N 59°21' E 018°07'0 0.0
2015-Jul-27 02:32N 59°21' E 018°07'0 0.0
2015-Jul-27 01:32N 59°21' E 018°07'0 0.0
2015-Jul-27 00:32N 59°21' E 018°07'0 0.0
2015-Jul-26 23:28N 59°21' E 018°07'0 0.0
2015-Jul-26 22:31N 59°21' E 018°07'0 0.0
2015-Jul-26 21:31N 59°21' E 018°07'0 0.0
2015-Jul-26 20:28N 59°21' E 018°07'0 0.0
2015-Jul-26 19:28N 59°21' E 018°07'0 0.0
2015-Jul-26 18:32N 59°21' E 018°07'0 0.0
2015-Jul-26 17:29N 59°21' E 018°07'0 0.0
2015-Jul-26 16:29N 59°21' E 018°07'0 0.0
2015-Jul-26 15:29N 59°21' E 018°07'0 0.0
2015-Jul-26 14:29N 59°21' E 018°07'0 0.0
2015-Jul-26 13:29N 59°21' E 018°07'0 0.0
2015-Jul-26 12:32N 59°21' E 018°07'0 0.0
2015-Jul-26 11:32N 59°21' E 018°07'0 0.0
2015-Jul-26 10:32N 59°21' E 018°07'0 0.0
2015-Jul-26 09:29N 59°21' E 018°07'0 0.0
2015-Jul-26 08:20N 59°21' E 018°07'0 0.0
2015-Jul-26 07:31N 59°21' E 018°07'0 0.0
2015-Jul-26 06:33N 59°21' E 018°07'2 1.6
2015-Jul-26 05:33N 59°20' E 018°10'9110.1
2015-Jul-25 20:31N 59°33' E 021°08'2021.3
2015-Jul-25 19:34N 59°29' E 021°48'2120.3
2015-Jul-25 18:32N 59°32' E 022°28'2121.2
2015-Jul-25 17:33N 59°37' E 023°08'2121.2
2015-Jul-25 16:33N 59°43' E 023°48'2121.0
2015-Jul-25 15:34N 59°48' E 024°29'1818.4
2015-Jul-25 14:33N 60°00' E 024°56'9 2.4
2015-Jul-25 11:04N 60°09' E 024°55'0 0.0
2015-Jul-25 10:25N 60°09' E 024°55'5 0.8
2015-Jul-25 03:25N 60°04' E 024°53'1112.3
2015-Jul-25 02:33N 59°57' E 025°10'1413.2
2015-Jul-25 01:32N 59°55' E 025°37'1313.2
2015-Jul-25 00:33N 59°58' E 026°02'1313.1
2015-Jul-24 23:33N 60°01' E 026°27'1312.8
2015-Jul-24 22:33N 60°00' E 026°53'1414.2
2015-Jul-24 21:33N 60°05' E 027°20'5615.8
2015-Jul-24 18:00N 60°00' E 029°12'915.3 270 / 391008.410.8 1.516.612.716.8
2015-Jul-24 17:26N 60°02' E 029°28'1011.3
2015-Jul-24 16:33N 59°58' E 029°47'1111.3
2015-Jul-24 15:33N 59°57' E 030°09'1 0.9
2015-Jul-24 14:31N 59°57' E 030°11'0 0.0
2015-Jul-24 13:28N 59°57' E 030°11'0 0.0
2015-Jul-24 12:33N 59°57' E 030°11'0 0.0
2015-Jul-24 11:28N 59°57' E 030°11'0 0.0
2015-Jul-24 10:32N 59°57' E 030°11'0 0.0
2015-Jul-24 09:33N 59°57' E 030°11'0 0.0
2015-Jul-24 08:32N 59°57' E 030°11'0 0.0
2015-Jul-24 07:31N 59°57' E 030°11'0 0.0
2015-Jul-24 06:33N 59°57' E 030°11'0 0.0
2015-Jul-24 05:34N 59°57' E 030°11'0 0.0
2015-Jul-24 04:33N 59°57' E 030°11'  
Track history (hours):
 
Tides and Currents Weather Stations Pressure Air Temp Water Temp Dewpoint Dewpoint Depression Visibility Wind Speed Wind Dir Waves Ship Positions

Eurodam (Netherlands)

Last reported at 2015-Aug-03 03:33 UTC. Time now 2015-Aug-03 04:30 UTC.
Position N 59°22' E 004°56'.

Length 287 m; draft 8.1 m.

Type: Ship. MMSI: 245206000.

Date/timePositionNaut miles runAvg speedWind from/ knotsBaromVisibWave heightAir tempDewpointWater temp
2015-Aug-03 03:33N 59°22' E 004°56'2416.4
2015-Aug-03 02:06N 59°44' E 004°38'916.2
2015-Aug-03 01:33N 59°53' E 004°35'50 1.7
2015-Aug-01 20:00N 60°42' E 004°12'11715.1 160 / 221010.810.8 0.513.0 6.812.6
2015-Aug-01 12:17N 58°46' E 004°38'1216.0
2015-Aug-01 11:31N 58°38' E 004°55'1916.6
2015-Aug-01 10:23N 58°23' E 005°19'1316.1
2015-Aug-01 09:33N 58°14' E 005°37'1515.3
2015-Aug-01 08:33N 58°04' E 005°59'10316.1
2015-Aug-01 02:12N 57°49' E 009°10'1316.8
2015-Aug-01 01:25N 57°50' E 009°35'1517.0
2015-Aug-01 00:33N 57°50' E 010°02'1716.7
2015-Jul-31 23:33N 57°49' E 010°33'1716.6
2015-Jul-31 22:34N 57°41' E 011°01'1716.8
2015-Jul-31 21:33N 57°30' E 011°25'1817.5
2015-Jul-31 20:33N 57°14' E 011°36'1717.3
2015-Jul-31 19:33N 56°57' E 011°47'1716.9
2015-Jul-31 18:33N 56°41' E 011°56'1 2.4
2015-Jul-31 18:00N 56°42' E 011°54'1840.2 280 / 301013.210.8 0.524.0 8.815.7
2015-Jul-31 17:32N 56°25' E 012°05'1616.0
2015-Jul-31 16:33N 56°13' E 012°23'1515.0
2015-Jul-31 15:33N 56°02' E 012°41'1514.7
2015-Jul-31 14:33N 55°47' E 012°43'5 5.0
2015-Jul-31 13:32N 55°43' E 012°37'0 0.0
2015-Jul-31 12:32N 55°43' E 012°37'0 0.0
2015-Jul-31 11:33N 55°43' E 012°37'0 0.0
2015-Jul-31 10:33N 55°43' E 012°37'0 0.0
2015-Jul-31 09:33N 55°43' E 012°37'0 0.0
2015-Jul-31 08:33N 55°43' E 012°37'0 0.0
2015-Jul-31 07:33N 55°43' E 012°37'0 0.0
2015-Jul-31 06:33N 55°43' E 012°37'0 0.0
2015-Jul-31 05:31N 55°43' E 012°37'0 0.0
2015-Jul-31 04:33N 55°43' E 012°37'0 0.0
2015-Jul-31 03:33N 55°43' E 012°37'0 0.0
2015-Jul-31 02:33N 55°43' E 012°37'0 0.0
2015-Jul-31 01:33N 55°43' E 012°37'0 0.0
2015-Jul-31 00:33N 55°43' E 012°37'0 0.0
2015-Jul-30 23:33N 55°43' E 012°37'0 0.0
2015-Jul-30 22:33N 55°43' E 012°37'0 0.0
2015-Jul-30 21:33N 55°43' E 012°37'0 0.0
2015-Jul-30 20:32N 55°43' E 012°37'0 0.0
2015-Jul-30 19:32N 55°43' E 012°37'0 0.0
2015-Jul-30 18:32N 55°43' E 012°37'0 0.0
2015-Jul-30 17:31N 55°43' E 012°37'0 0.0
2015-Jul-30 16:33N 55°43' E 012°37'0 0.0
2015-Jul-30 15:31N 55°43' E 012°37'0 0.0
2015-Jul-30 14:33N 55°43' E 012°37'0 0.0
2015-Jul-30 13:33N 55°43' E 012°37'0 0.0
2015-Jul-30 12:32N 55°43' E 012°37'0 0.0
2015-Jul-30 11:32N 55°43' E 012°37'0 0.0
2015-Jul-30 10:32N 55°43' E 012°37'0 0.0
2015-Jul-30 09:32N 55°43' E 012°37'0 0.0
2015-Jul-30 08:33N 55°43' E 012°37'5 4.7
2015-Jul-30 07:34N 55°47' E 012°42'1313.4
2015-Jul-30 06:33N 55°60' E 012°40'1414.3
2015-Jul-30 05:34N 56°10' E 012°22'1514.5
2015-Jul-30 04:34N 56°09' E 011°56'1514.7
2015-Jul-30 03:34N 56°07' E 011°30'8313.8
2015-Jul-29 21:32N 54°47' E 010°49'1414.3
2015-Jul-29 20:33N 54°36' E 011°04'1817.4
2015-Jul-29 19:32N 54°30' E 011°33'1916.2
2015-Jul-29 18:20N 54°17' E 011°59'810.2
2015-Jul-29 17:33N 54°11' E 012°06'0 0.0
2015-Jul-29 16:30N 54°11' E 012°06'0 0.0
2015-Jul-29 15:09N 54°11' E 012°06'0 0.0
2015-Jul-29 13:18N 54°11' E 012°06'0 0.0
2015-Jul-29 12:32N 54°11' E 012°06'0 0.0
2015-Jul-29 11:20N 54°11' E 012°06'0 0.0
2015-Jul-29 10:26N 54°11' E 012°06'0 0.0
2015-Jul-29 09:32N 54°11' E 012°06'0 0.0
2015-Jul-29 08:26N 54°11' E 012°06'0 0.0
2015-Jul-29 07:29N 54°11' E 012°06'0 0.0
2015-Jul-29 06:23N 54°11' E 012°06'0 0.0
2015-Jul-29 05:32N 54°11' E 012°06'0 0.0
2015-Jul-29 04:20N 54°11' E 012°06'0 0.2
2015-Jul-29 03:27N 54°10' E 012°06'4 4.6
2015-Jul-29 02:33N 54°14' E 012°03'1211.9
2015-Jul-29 01:33N 54°26' E 011°60'1212.3
2015-Jul-29 00:33N 54°34' E 012°15'6114.4
2015-Jul-28 20:20N 55°02' E 013°49'1113.7
2015-Jul-28 19:33N 55°06' E 014°06'1414.1
2015-Jul-28 18:34N 55°17' E 014°22'5 9.2
2015-Jul-28 18:00N 55°12' E 014°18'1944.0 250 / 23999.010.8 1.525.0 1.5
2015-Jul-28 17:33N 55°28' E 014°37'1413.8
2015-Jul-28 16:33N 55°35' E 014°58'1413.7
2015-Jul-28 15:33N 55°42' E 015°19'9713.9
2015-Jul-28 08:32N 56°54' E 017°16'1717.4
2015-Jul-28 07:33N 57°10' E 017°27'1515.4
2015-Jul-28 06:33N 57°25' E 017°38'1615.7
2015-Jul-28 05:33N 57°39' E 017°49'6014.9
2015-Jul-28 01:33N 58°31' E 018°43'52 4.8
2015-Jul-27 14:33N 59°21' E 018°08'1 0.6
2015-Jul-27 13:26N 59°21' E 018°07'0 0.0
2015-Jul-27 12:32N 59°21' E 018°07'0 0.0
2015-Jul-27 11:25N 59°21' E 018°07'0 0.0
2015-Jul-27 10:31N 59°21' E 018°07'0 0.0
2015-Jul-27 09:31N 59°21' E 018°07'0 0.0
2015-Jul-27 08:31N 59°21' E 018°07'0 0.0
2015-Jul-27 07:31N 59°21' E 018°07'0 0.0
2015-Jul-27 06:32N 59°21' E 018°07'0 0.0
2015-Jul-27 05:33N 59°21' E 018°07'0 0.0
2015-Jul-27 04:32N 59°21' E 018°07'0 0.0
2015-Jul-27 03:32N 59°21' E 018°07'0 0.0
2015-Jul-27 02:32N 59°21' E 018°07'0 0.0
2015-Jul-27 01:32N 59°21' E 018°07'0 0.0
2015-Jul-27 00:32N 59°21' E 018°07'0 0.0
2015-Jul-26 23:28N 59°21' E 018°07'0 0.0
2015-Jul-26 22:31N 59°21' E 018°07'0 0.0
2015-Jul-26 21:31N 59°21' E 018°07'0 0.0
2015-Jul-26 20:28N 59°21' E 018°07'0 0.0
2015-Jul-26 19:28N 59°21' E 018°07'0 0.0
2015-Jul-26 18:32N 59°21' E 018°07'0 0.0
2015-Jul-26 17:29N 59°21' E 018°07'0 0.0
2015-Jul-26 16:29N 59°21' E 018°07'0 0.0
2015-Jul-26 15:29N 59°21' E 018°07'0 0.0
2015-Jul-26 14:29N 59°21' E 018°07'0 0.0
2015-Jul-26 13:29N 59°21' E 018°07'0 0.0
2015-Jul-26 12:32N 59°21' E 018°07'0 0.0
2015-Jul-26 11:32N 59°21' E 018°07'0 0.0
2015-Jul-26 10:32N 59°21' E 018°07'0 0.0
2015-Jul-26 09:29N 59°21' E 018°07'0 0.0
2015-Jul-26 08:20N 59°21' E 018°07'0 0.0
2015-Jul-26 07:31N 59°21' E 018°07'0 0.0
2015-Jul-26 06:33N 59°21' E 018°07'2 1.6
2015-Jul-26 05:33N 59°20' E 018°10'9110.1
2015-Jul-25 20:31N 59°33' E 021°08'2021.3
2015-Jul-25 19:34N 59°29' E 021°48'2120.3
2015-Jul-25 18:32N 59°32' E 022°28'2121.2
2015-Jul-25 17:33N 59°37' E 023°08'2121.2
2015-Jul-25 16:33N 59°43' E 023°48'2121.0
2015-Jul-25 15:34N 59°48' E 024°29'1818.4
2015-Jul-25 14:33N 60°00' E 024°56'9 2.4
2015-Jul-25 11:04N 60°09' E 024°55'0 0.0
2015-Jul-25 10:25N 60°09' E 024°55'5 0.8
2015-Jul-25 03:25N 60°04' E 024°53'1112.3
2015-Jul-25 02:33N 59°57' E 025°10'1413.2
2015-Jul-25 01:32N 59°55' E 025°37'1313.2
2015-Jul-25 00:33N 59°58' E 026°02'1313.1
2015-Jul-24 23:33N 60°01' E 026°27'1312.8
2015-Jul-24 22:33N 60°00' E 026°53'1414.2
2015-Jul-24 21:33N 60°05' E 027°20'5615.8
2015-Jul-24 18:00N 60°00' E 029°12'915.3 270 / 391008.410.8 1.516.612.716.8
2015-Jul-24 17:26N 60°02' E 029°28'1011.3
2015-Jul-24 16:33N 59°58' E 029°47'1111.3
2015-Jul-24 15:33N 59°57' E 030°09'1 0.9
2015-Jul-24 14:31N 59°57' E 030°11'0 0.0
2015-Jul-24 13:28N 59°57' E 030°11'0 0.0
2015-Jul-24 12:33N 59°57' E 030°11'0 0.0
2015-Jul-24 11:28N 59°57' E 030°11'0 0.0
2015-Jul-24 10:32N 59°57' E 030°11'0 0.0
2015-Jul-24 09:33N 59°57' E 030°11'0 0.0
2015-Jul-24 08:32N 59°57' E 030°11'0 0.0
2015-Jul-24 07:31N 59°57' E 030°11'0 0.0
2015-Jul-24 06:33N 59°57' E 030°11'0 0.0
2015-Jul-24 05:34N 59°57' E 030°11'0 0.0
2015-Jul-24 04:33N 59°57' E 030°11'  

Dump ship's entire track history